sensor_id;sensor_type;location;lat;lon;timestamp;pressure;altitude;pressure_sealevel;temperature;humidity
35489;BME280;21602;55.670;37.578;2023-10-31T00:01:20;98459.53;;;10.16;100.00
35489;BME280;21602;55.670;37.578;2023-10-31T00:03:46;98453.16;;;10.22;100.00
35489;BME280;21602;55.670;37.578;2023-10-31T00:06:12;98456.59;;;10.18;100.00
35489;BME280;21602;55.670;37.578;2023-10-31T00:08:37;98464.84;;;10.16;100.00
35489;BME280;21602;55.670;37.578;2023-10-31T00:11:04;98457.88;;;10.15;100.00
35489;BME280;21602;55.670;37.578;2023-10-31T00:13:30;98458.59;;;10.06;100.00
35489;BME280;21602;55.670;37.578;2023-10-31T00:15:55;98466.91;;;10.09;100.00
35489;BME280;21602;55.670;37.578;2023-10-31T00:18:21;98453.56;;;10.09;100.00
35489;BME280;21602;55.670;37.578;2023-10-31T00:20:47;98458.69;;;10.16;100.00
35489;BME280;21602;55.670;37.578;2023-10-31T00:23:13;98471.22;;;10.15;100.00
35489;BME280;21602;55.670;37.578;2023-10-31T00:25:39;98474.47;;;10.17;100.00
35489;BME280;21602;55.670;37.578;2023-10-31T00:28:07;98477.13;;;10.17;100.00
35489;BME280;21602;55.670;37.578;2023-10-31T00:30:32;98482.19;;;10.19;100.00
35489;BME280;21602;55.670;37.578;2023-10-31T00:32:59;98481.94;;;10.20;100.00
35489;BME280;21602;55.670;37.578;2023-10-31T00:35:25;98484.38;;;10.22;100.00
35489;BME280;21602;55.670;37.578;2023-10-31T00:37:50;98479.28;;;10.20;100.00
35489;BME280;21602;55.670;37.578;2023-10-31T00:40:16;98482.66;;;10.11;99.92
35489;BME280;21602;55.670;37.578;2023-10-31T00:42:44;98485.09;;;10.12;100.00
35489;BME280;21602;55.670;37.578;2023-10-31T00:45:12;98489.34;;;10.13;100.00
35489;BME280;21602;55.670;37.578;2023-10-31T00:47:38;98498.19;;;10.19;100.00
35489;BME280;21602;55.670;37.578;2023-10-31T00:50:04;98497.66;;;10.17;99.67
35489;BME280;21602;55.670;37.578;2023-10-31T00:52:30;98502.47;;;10.20;99.77
35489;BME280;21602;55.670;37.578;2023-10-31T00:54:55;98501.69;;;10.19;99.92
35489;BME280;21602;55.670;37.578;2023-10-31T00:57:21;98505.72;;;10.22;99.82
35489;BME280;21602;55.670;37.578;2023-10-31T00:59:47;98511.84;;;10.22;99.69
35489;BME280;21602;55.670;37.578;2023-10-31T01:02:12;98519.06;;;10.22;99.41
35489;BME280;21602;55.670;37.578;2023-10-31T01:04:39;98518.78;;;10.23;99.62
35489;BME280;21602;55.670;37.578;2023-10-31T01:07:05;98532.72;;;10.25;99.37
35489;BME280;21602;55.670;37.578;2023-10-31T01:09:30;98525.19;;;10.22;99.09
35489;BME280;21602;55.670;37.578;2023-10-31T01:11:56;98532.38;;;10.22;99.11
35489;BME280;21602;55.670;37.578;2023-10-31T01:14:21;98529.94;;;10.20;99.00
35489;BME280;21602;55.670;37.578;2023-10-31T01:16:47;98538.53;;;10.22;99.08
35489;BME280;21602;55.670;37.578;2023-10-31T01:19:13;98543.41;;;10.25;98.79
35489;BME280;21602;55.670;37.578;2023-10-31T01:21:39;98537.81;;;10.27;98.81
35489;BME280;21602;55.670;37.578;2023-10-31T01:24:04;98543.69;;;10.29;98.44
35489;BME280;21602;55.670;37.578;2023-10-31T01:26:30;98546.28;;;10.24;98.22
35489;BME280;21602;55.670;37.578;2023-10-31T01:28:55;98543.84;;;10.22;98.59
35489;BME280;21602;55.670;37.578;2023-10-31T01:31:21;98545.41;;;10.18;98.46
35489;BME280;21602;55.670;37.578;2023-10-31T01:33:47;98553.09;;;10.15;98.55
35489;BME280;21602;55.670;37.578;2023-10-31T01:36:13;98562.16;;;10.14;98.86
35489;BME280;21602;55.670;37.578;2023-10-31T01:38:39;98564.56;;;10.15;98.81
35489;BME280;21602;55.670;37.578;2023-10-31T01:41:06;98566.44;;;10.15;98.95
35489;BME280;21602;55.670;37.578;2023-10-31T01:43:32;98567.81;;;10.17;98.86
35489;BME280;21602;55.670;37.578;2023-10-31T01:45:58;98564.56;;;10.15;98.96
35489;BME280;21602;55.670;37.578;2023-10-31T01:48:24;98567.19;;;10.10;98.77
35489;BME280;21602;55.670;37.578;2023-10-31T01:50:51;98576.25;;;10.09;99.12
35489;BME280;21602;55.670;37.578;2023-10-31T01:53:17;98577.31;;;10.08;99.03
35489;BME280;21602;55.670;37.578;2023-10-31T01:55:44;98582.63;;;10.08;99.16
35489;BME280;21602;55.670;37.578;2023-10-31T01:58:11;98583.69;;;10.07;99.26
35489;BME280;21602;55.670;37.578;2023-10-31T02:00:37;98584.72;;;10.06;99.05
35489;BME280;21602;55.670;37.578;2023-10-31T02:03:06;98578.09;;;10.09;99.15
35489;BME280;21602;55.670;37.578;2023-10-31T02:05:34;98592.72;;;10.06;98.80
35489;BME280;21602;55.670;37.578;2023-10-31T02:08:00;98596.97;;;10.02;98.95
35489;BME280;21602;55.670;37.578;2023-10-31T02:10:25;98601.72;;;10.00;99.18
35489;BME280;21602;55.670;37.578;2023-10-31T02:12:51;98604.41;;;10.00;99.13
35489;BME280;21602;55.670;37.578;2023-10-31T02:15:17;98605.94;;;9.96;99.18
35489;BME280;21602;55.670;37.578;2023-10-31T02:17:42;98608.06;;;9.94;99.61
35489;BME280;21602;55.670;37.578;2023-10-31T02:20:08;98615.47;;;9.92;99.81
35489;BME280;21602;55.670;37.578;2023-10-31T02:22:34;98623.19;;;9.88;100.00
35489;BME280;21602;55.670;37.578;2023-10-31T02:25:00;98611.72;;;9.88;100.00
35489;BME280;21602;55.670;37.578;2023-10-31T02:27:25;98613.06;;;9.90;100.00
35489;BME280;21602;55.670;37.578;2023-10-31T02:29:52;98624.00;;;9.89;100.00
35489;BME280;21602;55.670;37.578;2023-10-31T02:32:17;98624.22;;;9.87;100.00
35489;BME280;21602;55.670;37.578;2023-10-31T02:34:46;98620.47;;;9.83;100.00
35489;BME280;21602;55.670;37.578;2023-10-31T02:37:11;98623.19;;;9.88;100.00
35489;BME280;21602;55.670;37.578;2023-10-31T02:39:37;98624.78;;;9.89;100.00
35489;BME280;21602;55.670;37.578;2023-10-31T02:42:03;98633.84;;;9.88;100.00
35489;BME280;21602;55.670;37.578;2023-10-31T02:44:29;98634.66;;;9.89;100.00
35489;BME280;21602;55.670;37.578;2023-10-31T02:46:54;98638.13;;;9.89;100.00
35489;BME280;21602;55.670;37.578;2023-10-31T02:49:21;98629.31;;;9.89;100.00
35489;BME280;21602;55.670;37.578;2023-10-31T02:51:47;98630.13;;;9.89;100.00
35489;BME280;21602;55.670;37.578;2023-10-31T02:54:12;98641.59;;;9.90;100.00
35489;BME280;21602;55.670;37.578;2023-10-31T02:56:38;98645.06;;;9.90;100.00
35489;BME280;21602;55.670;37.578;2023-10-31T02:59:06;98653.38;;;9.94;100.00
35489;BME280;21602;55.670;37.578;2023-10-31T03:01:35;98651.28;;;9.96;100.00
35489;BME280;21602;55.670;37.578;2023-10-31T03:04:01;98660.06;;;9.96;100.00
35489;BME280;21602;55.670;37.578;2023-10-31T03:06:26;98670.66;;;9.91;100.00
35489;BME280;21602;55.670;37.578;2023-10-31T03:08:52;98667.44;;;9.89;100.00
35489;BME280;21602;55.670;37.578;2023-10-31T03:11:24;98678.13;;;9.89;100.00
35489;BME280;21602;55.670;37.578;2023-10-31T03:13:50;98670.44;;;9.93;100.00
35489;BME280;21602;55.670;37.578;2023-10-31T03:16:16;98679.31;;;9.98;100.00
35489;BME280;21602;55.670;37.578;2023-10-31T03:18:42;98672.66;;;10.01;100.00
35489;BME280;21602;55.670;37.578;2023-10-31T03:21:08;98665.78;;;10.05;100.00
35489;BME280;21602;55.670;37.578;2023-10-31T03:23:33;98673.31;;;10.08;100.00
35489;BME280;21602;55.670;37.578;2023-10-31T03:25:59;98667.91;;;10.03;100.00
35489;BME280;21602;55.670;37.578;2023-10-31T03:28:24;98674.03;;;10.04;100.00
35489;BME280;21602;55.670;37.578;2023-10-31T03:30:50;98675.66;;;10.05;100.00
35489;BME280;21602;55.670;37.578;2023-10-31T03:33:16;98685.03;;;10.07;100.00
35489;BME280;21602;55.670;37.578;2023-10-31T03:35:43;98687.44;;;10.09;100.00
35489;BME280;21602;55.670;37.578;2023-10-31T03:38:08;98692.78;;;10.09;100.00
35489;BME280;21602;55.670;37.578;2023-10-31T03:40:35;98690.66;;;10.11;99.85
35489;BME280;21602;55.670;37.578;2023-10-31T03:43:01;98689.31;;;10.08;99.78
35489;BME280;21602;55.670;37.578;2023-10-31T03:45:26;98689.84;;;10.10;99.83
35489;BME280;21602;55.670;37.578;2023-10-31T03:47:52;98685.31;;;10.11;99.78
35489;BME280;21602;55.670;37.578;2023-10-31T03:50:18;98693.09;;;10.12;100.00
35489;BME280;21602;55.670;37.578;2023-10-31T03:52:43;98704.84;;;10.11;100.00
35489;BME280;21602;55.670;37.578;2023-10-31T03:55:09;98712.84;;;10.11;100.00
35489;BME280;21602;55.670;37.578;2023-10-31T03:57:35;98708.53;;;10.10;100.00
35489;BME280;21602;55.670;37.578;2023-10-31T04:00:01;98711.19;;;10.10;100.00
35489;BME280;21602;55.670;37.578;2023-10-31T04:02:41;98713.13;;;10.15;100.00
35489;BME280;21602;55.670;37.578;2023-10-31T04:05:07;98717.19;;;10.17;100.00
35489;BME280;21602;55.670;37.578;2023-10-31T04:07:34;98718.31;;;10.21;100.00
35489;BME280;21602;55.670;37.578;2023-10-31T04:10:00;98723.63;;;10.21;100.00
35489;BME280;21602;55.670;37.578;2023-10-31T04:12:26;98725.25;;;10.22;100.00
35489;BME280;21602;55.670;37.578;2023-10-31T04:14:51;98730.56;;;10.22;100.00
35489;BME280;21602;55.670;37.578;2023-10-31T04:17:17;98735.69;;;10.24;100.00
35489;BME280;21602;55.670;37.578;2023-10-31T04:19:43;98730.34;;;10.24;99.64
35489;BME280;21602;55.670;37.578;2023-10-31T04:22:08;98739.75;;;10.27;99.70
35489;BME280;21602;55.670;37.578;2023-10-31T04:24:35;98750.97;;;10.29;99.55
35489;BME280;21602;55.670;37.578;2023-10-31T04:27:00;98745.13;;;10.32;99.61
35489;BME280;21602;55.670;37.578;2023-10-31T04:29:26;98744.88;;;10.33;99.30
35489;BME280;21602;55.670;37.578;2023-10-31T04:31:52;98746.28;;;10.36;99.23
35489;BME280;21602;55.670;37.578;2023-10-31T04:34:17;98747.88;;;10.37;98.87
35489;BME280;21602;55.670;37.578;2023-10-31T04:36:43;98745.75;;;10.39;98.81
35489;BME280;21602;55.670;37.578;2023-10-31T04:39:08;98747.69;;;10.43;98.95
35489;BME280;21602;55.670;37.578;2023-10-31T04:41:35;98753.34;;;10.47;98.72
35489;BME280;21602;55.670;37.578;2023-10-31T04:44:00;98753.66;;;10.50;98.50
35489;BME280;21602;55.670;37.578;2023-10-31T04:46:26;98758.25;;;10.55;98.20
35489;BME280;21602;55.670;37.578;2023-10-31T04:48:54;98756.72;;;10.59;98.01
35489;BME280;21602;55.670;37.578;2023-10-31T04:51:20;98761.31;;;10.64;97.81
35489;BME280;21602;55.670;37.578;2023-10-31T04:53:46;98771.47;;;10.67;97.71
35489;BME280;21602;55.670;37.578;2023-10-31T04:56:12;98764.25;;;10.67;97.51
35489;BME280;21602;55.670;37.578;2023-10-31T04:58:38;98767.50;;;10.69;97.47
35489;BME280;21602;55.670;37.578;2023-10-31T05:01:07;98773.97;;;10.73;97.49
35489;BME280;21602;55.670;37.578;2023-10-31T05:03:33;98772.16;;;10.79;97.40
35489;BME280;21602;55.670;37.578;2023-10-31T05:05:58;98767.69;;;10.85;96.95
35489;BME280;21602;55.670;37.578;2023-10-31T05:08:24;98769.28;;;10.86;97.07
35489;BME280;21602;55.670;37.578;2023-10-31T05:10:50;98780.28;;;10.89;96.88
35489;BME280;21602;55.670;37.578;2023-10-31T05:13:15;98783.78;;;10.90;96.88
35489;BME280;21602;55.670;37.578;2023-10-31T05:15:41;98776.81;;;10.89;96.82
35489;BME280;21602;55.670;37.578;2023-10-31T05:18:06;98772.53;;;10.88;96.81
35489;BME280;21602;55.670;37.578;2023-10-31T05:20:32;98780.56;;;10.88;96.88
35489;BME280;21602;55.670;37.578;2023-10-31T05:23:01;98797.38;;;10.88;96.82
35489;BME280;21602;55.670;37.578;2023-10-31T05:25:26;98788.78;;;10.86;96.70
35489;BME280;21602;55.670;37.578;2023-10-31T05:27:52;98793.31;;;10.86;96.92
35489;BME280;21602;55.670;37.578;2023-10-31T05:30:17;98794.94;;;10.87;97.02
35489;BME280;21602;55.670;37.578;2023-10-31T05:32:43;98795.25;;;10.90;96.84
35489;BME280;21602;55.670;37.578;2023-10-31T05:35:12;98805.75;;;10.97;96.88
35489;BME280;21602;55.670;37.578;2023-10-31T05:37:38;98809.53;;;11.01;96.58
35489;BME280;21602;55.670;37.578;2023-10-31T05:40:04;98815.19;;;11.05;96.49
35489;BME280;21602;55.670;37.578;2023-10-31T05:42:29;98820.84;;;11.08;96.06
35489;BME280;21602;55.670;37.578;2023-10-31T05:44:55;98824.06;;;11.10;96.00
35489;BME280;21602;55.670;37.578;2023-10-31T05:47:29;98831.31;;;11.15;95.84
35489;BME280;21602;55.670;37.578;2023-10-31T05:49:54;98835.38;;;11.17;95.73
35489;BME280;21602;55.670;37.578;2023-10-31T05:52:20;98837.56;;;11.20;95.57
35489;BME280;21602;55.670;37.578;2023-10-31T05:54:45;98835.97;;;11.24;95.42
35489;BME280;21602;55.670;37.578;2023-10-31T05:57:13;98839.78;;;11.28;95.05
35489;BME280;21602;55.670;37.578;2023-10-31T05:59:42;98844.63;;;11.32;94.86
35489;BME280;21602;55.670;37.578;2023-10-31T06:02:07;98854.81;;;11.35;95.00
35489;BME280;21602;55.670;37.578;2023-10-31T06:04:33;98864.19;;;11.37;94.81
35489;BME280;21602;55.670;37.578;2023-10-31T06:06:59;98860.22;;;11.40;94.77
35489;BME280;21602;55.670;37.578;2023-10-31T06:09:25;98868.78;;;11.42;94.78
35489;BME280;21602;55.670;37.578;2023-10-31T06:11:50;98874.63;;;11.39;94.86
35489;BME280;21602;55.670;37.578;2023-10-31T06:14:16;98881.84;;;11.38;95.05
35489;BME280;21602;55.670;37.578;2023-10-31T06:16:42;98882.09;;;11.37;94.88
35489;BME280;21602;55.670;37.578;2023-10-31T06:19:08;98880.22;;;11.37;95.21
35489;BME280;21602;55.670;37.578;2023-10-31T06:21:33;98879.97;;;11.39;95.10
35489;BME280;21602;55.670;37.578;2023-10-31T06:23:59;98878.41;;;11.43;95.29
35489;BME280;21602;55.670;37.578;2023-10-31T06:26:25;98875.50;;;11.44;94.73
35489;BME280;21602;55.670;37.578;2023-10-31T06:28:51;98874.88;;;11.37;94.32
35489;BME280;21602;55.670;37.578;2023-10-31T06:31:16;98873.22;;;11.31;94.85
35489;BME280;21602;55.670;37.578;2023-10-31T06:33:42;98872.41;;;11.31;95.11
35489;BME280;21602;55.670;37.578;2023-10-31T06:36:08;98867.56;;;11.27;95.04
35489;BME280;21602;55.670;37.578;2023-10-31T06:38:33;98874.03;;;11.32;95.18
35489;BME280;21602;55.670;37.578;2023-10-31T06:40:59;98875.69;;;11.38;95.23
35489;BME280;21602;55.670;37.578;2023-10-31T06:43:25;98880.03;;;11.44;95.20
35489;BME280;21602;55.670;37.578;2023-10-31T06:45:50;98882.78;;;11.49;95.02
35489;BME280;21602;55.670;37.578;2023-10-31T06:48:16;98884.44;;;11.55;94.89
35489;BME280;21602;55.670;37.578;2023-10-31T06:50:42;98888.78;;;11.61;94.58
35489;BME280;21602;55.670;37.578;2023-10-31T06:53:08;98889.34;;;11.63;94.33
35489;BME280;21602;55.670;37.578;2023-10-31T06:55:36;98892.06;;;11.68;94.24
35489;BME280;21602;55.670;37.578;2023-10-31T06:58:01;98897.97;;;11.70;94.05
35489;BME280;21602;55.670;37.578;2023-10-31T07:00:28;98902.00;;;11.73;94.00
35489;BME280;21602;55.670;37.578;2023-10-31T07:02:54;98903.84;;;11.72;93.77
35489;BME280;21602;55.670;37.578;2023-10-31T07:05:19;98915.56;;;11.66;93.91
35489;BME280;21602;55.670;37.578;2023-10-31T07:07:48;98920.09;;;11.66;94.11
35489;BME280;21602;55.670;37.578;2023-10-31T07:10:13;98923.09;;;11.69;94.22
35489;BME280;21602;55.670;37.578;2023-10-31T07:12:39;98930.59;;;11.72;94.04
35489;BME280;21602;55.670;37.578;2023-10-31T07:15:05;98927.44;;;11.75;94.08
35489;BME280;21602;55.670;37.578;2023-10-31T07:17:31;98934.97;;;11.78;94.05
35489;BME280;21602;55.670;37.578;2023-10-31T07:19:57;98938.19;;;11.80;94.02
35489;BME280;21602;55.670;37.578;2023-10-31T07:22:24;98944.34;;;11.81;93.80
35489;BME280;21602;55.670;37.578;2023-10-31T07:24:50;98950.34;;;11.88;93.75
35489;BME280;21602;55.670;37.578;2023-10-31T07:27:16;98956.00;;;11.92;93.77
35489;BME280;21602;55.670;37.578;2023-10-31T07:29:42;98948.25;;;11.95;93.68
35489;BME280;21602;55.670;37.578;2023-10-31T07:32:08;98953.91;;;11.99;93.76
35489;BME280;21602;55.670;37.578;2023-10-31T07:34:34;98957.72;;;12.03;93.71
35489;BME280;21602;55.670;37.578;2023-10-31T07:37:00;98951.88;;;12.06;93.59
35489;BME280;21602;55.670;37.578;2023-10-31T07:39:27;98962.00;;;12.04;93.04
35489;BME280;21602;55.670;37.578;2023-10-31T07:41:54;98960.94;;;12.05;93.21
35489;BME280;21602;55.670;37.578;2023-10-31T07:44:21;98966.50;;;11.98;93.02
35489;BME280;21602;55.670;37.578;2023-10-31T07:46:47;98968.16;;;12.04;93.00
35489;BME280;21602;55.670;37.578;2023-10-31T07:49:13;98966.59;;;12.09;93.01
35489;BME280;21602;55.670;37.578;2023-10-31T07:51:38;98972.84;;;12.19;92.86
35489;BME280;21602;55.670;37.578;2023-10-31T07:54:04;98971.03;;;12.25;92.32
35489;BME280;21602;55.670;37.578;2023-10-31T07:56:31;98973.06;;;12.40;92.39
35489;BME280;21602;55.670;37.578;2023-10-31T07:58:58;98979.50;;;12.44;91.03
35489;BME280;21602;55.670;37.578;2023-10-31T08:01:23;98984.88;;;12.44;91.66
35489;BME280;21602;55.670;37.578;2023-10-31T08:03:49;98984.34;;;12.47;91.60
35489;BME280;21602;55.670;37.578;2023-10-31T08:06:15;98983.22;;;12.43;91.42
35489;BME280;21602;55.670;37.578;2023-10-31T08:08:41;98986.88;;;12.32;91.50
35489;BME280;21602;55.670;37.578;2023-10-31T08:11:07;98991.22;;;12.38;91.48
35489;BME280;21602;55.670;37.578;2023-10-31T08:13:33;98988.84;;;12.41;91.32
35489;BME280;21602;55.670;37.578;2023-10-31T08:15:59;98987.28;;;12.45;91.06
35489;BME280;21602;55.670;37.578;2023-10-31T08:18:25;98991.31;;;12.48;90.84
35489;BME280;21602;55.670;37.578;2023-10-31T08:20:50;98991.34;;;12.53;90.63
35489;BME280;21602;55.670;37.578;2023-10-31T08:23:16;98993.56;;;12.61;90.49
35489;BME280;21602;55.670;37.578;2023-10-31T08:25:43;98993.09;;;12.69;89.95
35489;BME280;21602;55.670;37.578;2023-10-31T08:28:09;98990.00;;;12.82;89.36
35489;BME280;21602;55.670;37.578;2023-10-31T08:30:44;98992.41;;;12.84;89.13
35489;BME280;21602;55.670;37.578;2023-10-31T08:33:09;98985.47;;;12.88;89.36
35489;BME280;21602;55.670;37.578;2023-10-31T08:35:35;98985.25;;;12.95;89.02
35489;BME280;21602;55.670;37.578;2023-10-31T08:38:01;98988.25;;;13.03;88.67
35489;BME280;21602;55.670;37.578;2023-10-31T08:40:27;99002.47;;;13.04;87.95
35489;BME280;21602;55.670;37.578;2023-10-31T08:42:52;98986.81;;;12.91;87.92
35489;BME280;21602;55.670;37.578;2023-10-31T08:45:18;98994.78;;;12.80;88.03
35489;BME280;21602;55.670;37.578;2023-10-31T08:47:44;98994.13;;;12.63;87.55
35489;BME280;21602;55.670;37.578;2023-10-31T08:50:10;98992.47;;;12.57;87.64
35489;BME280;21602;55.670;37.578;2023-10-31T08:52:36;98999.63;;;12.51;87.85
35489;BME280;21602;55.670;37.578;2023-10-31T08:55:02;99000.84;;;12.39;87.67
35489;BME280;21602;55.670;37.578;2023-10-31T08:57:29;99003.09;;;12.20;87.84
35489;BME280;21602;55.670;37.578;2023-10-31T08:59:55;98990.78;;;12.19;87.89
35489;BME280;21602;55.670;37.578;2023-10-31T09:02:23;98992.63;;;12.18;87.93
35489;BME280;21602;55.670;37.578;2023-10-31T09:04:48;98994.78;;;12.16;88.25
35489;BME280;21602;55.670;37.578;2023-10-31T09:07:14;98990.47;;;12.15;88.22
35489;BME280;21602;55.670;37.578;2023-10-31T09:09:40;98989.97;;;12.18;88.08
35489;BME280;21602;55.670;37.578;2023-10-31T09:12:06;98991.34;;;12.21;88.02
35489;BME280;21602;55.670;37.578;2023-10-31T09:14:31;99001.06;;;12.32;88.04
35489;BME280;21602;55.670;37.578;2023-10-31T09:16:57;98996.06;;;12.41;87.88
35489;BME280;21602;55.670;37.578;2023-10-31T09:19:23;98999.88;;;12.45;87.53
35489;BME280;21602;55.670;37.578;2023-10-31T09:21:49;99003.75;;;12.59;87.38
35489;BME280;21602;55.670;37.578;2023-10-31T09:24:14;99003.34;;;12.77;86.90
35489;BME280;21602;55.670;37.578;2023-10-31T09:26:43;99009.28;;;12.85;85.99
35489;BME280;21602;55.670;37.578;2023-10-31T09:29:12;99012.03;;;12.95;85.96
35489;BME280;21602;55.670;37.578;2023-10-31T09:31:39;99006.09;;;12.88;85.14
35489;BME280;21602;55.670;37.578;2023-10-31T09:34:05;99000.97;;;12.86;85.61
35489;BME280;21602;55.670;37.578;2023-10-31T09:36:32;98999.94;;;12.87;85.63
35489;BME280;21602;55.670;37.578;2023-10-31T09:39:00;99005.34;;;12.92;85.63
35489;BME280;21602;55.670;37.578;2023-10-31T09:41:25;99000.50;;;12.94;84.59
35489;BME280;21602;55.670;37.578;2023-10-31T09:43:51;98995.97;;;12.95;84.31
35489;BME280;21602;55.670;37.578;2023-10-31T09:46:18;98994.34;;;12.94;84.40
35489;BME280;21602;55.670;37.578;2023-10-31T09:48:44;98997.03;;;12.94;84.19
35489;BME280;21602;55.670;37.578;2023-10-31T09:51:10;98986.91;;;13.01;84.03
35489;BME280;21602;55.670;37.578;2023-10-31T09:53:38;98986.66;;;13.02;83.88
35489;BME280;21602;55.670;37.578;2023-10-31T09:56:07;98994.19;;;13.05;83.90
35489;BME280;21602;55.670;37.578;2023-10-31T09:58:33;98985.63;;;13.14;83.24
35489;BME280;21602;55.670;37.578;2023-10-31T10:00:59;98992.44;;;13.26;83.10
35489;BME280;21602;55.670;37.578;2023-10-31T10:03:26;98986.38;;;13.41;82.30
35489;BME280;21602;55.670;37.578;2023-10-31T10:05:57;98996.09;;;13.57;81.97
35489;BME280;21602;55.670;37.578;2023-10-31T10:08:23;98992.38;;;13.64;80.87
35489;BME280;21602;55.670;37.578;2023-10-31T10:10:49;98997.47;;;13.70;80.78
35489;BME280;21602;55.670;37.578;2023-10-31T10:13:19;99003.94;;;13.69;79.68
35489;BME280;21602;55.670;37.578;2023-10-31T10:15:46;98996.41;;;13.66;79.99
35489;BME280;21602;55.670;37.578;2023-10-31T10:18:33;99004.66;;;13.54;79.98
35489;BME280;21602;55.670;37.578;2023-10-31T10:21:05;99011.28;;;13.37;80.29
35489;BME280;21602;55.670;37.578;2023-10-31T10:23:31;99008.56;;;13.31;80.45
35489;BME280;21602;55.670;37.578;2023-10-31T10:25:58;99005.84;;;13.26;80.69
35489;BME280;21602;55.670;37.578;2023-10-31T10:28:34;98982.81;;;13.25;80.93
35489;BME280;21602;55.670;37.578;2023-10-31T10:31:01;98974.78;;;13.30;80.71
35489;BME280;21602;55.670;37.578;2023-10-31T10:33:27;98979.94;;;13.42;80.68
35489;BME280;21602;55.670;37.578;2023-10-31T10:35:53;98990.44;;;13.49;80.27
35489;BME280;21602;55.670;37.578;2023-10-31T10:38:20;98984.56;;;13.57;80.14
35489;BME280;21602;55.670;37.578;2023-10-31T10:40:50;98971.19;;;13.67;80.00
35489;BME280;21602;55.670;37.578;2023-10-31T10:43:23;98974.44;;;13.74;79.78
35489;BME280;21602;55.670;37.578;2023-10-31T10:45:52;98975.81;;;13.77;79.58
35489;BME280;21602;55.670;37.578;2023-10-31T10:48:18;98970.69;;;13.75;79.42
35489;BME280;21602;55.670;37.578;2023-10-31T10:50:45;98968.78;;;13.71;79.25
35489;BME280;21602;55.670;37.578;2023-10-31T10:53:21;98974.41;;;13.69;79.39
35489;BME280;21602;55.670;37.578;2023-10-31T10:55:51;98974.41;;;13.69;80.21
35489;BME280;21602;55.670;37.578;2023-10-31T10:58:20;98971.47;;;13.71;80.28
35489;BME280;21602;55.670;37.578;2023-10-31T11:00:48;98974.41;;;13.69;80.57
35489;BME280;21602;55.670;37.578;2023-10-31T11:03:14;98986.22;;;13.63;80.71
35489;BME280;21602;55.670;37.578;2023-10-31T11:05:40;98982.66;;;13.57;80.58
35489;BME280;21602;55.670;37.578;2023-10-31T11:08:05;98981.31;;;13.50;80.77
35489;BME280;21602;55.670;37.578;2023-10-31T11:10:31;98983.97;;;13.45;81.02
35489;BME280;21602;55.670;37.578;2023-10-31T11:12:57;98997.63;;;13.43;81.39
35489;BME280;21602;55.670;37.578;2023-10-31T11:15:23;98989.84;;;13.42;81.93
35489;BME280;21602;55.670;37.578;2023-10-31T11:17:49;98977.25;;;13.42;82.11
35489;BME280;21602;55.670;37.578;2023-10-31T11:20:16;98982.09;;;13.45;82.56
35489;BME280;21602;55.670;37.578;2023-10-31T11:22:42;98986.94;;;13.48;82.79
35489;BME280;21602;55.670;37.578;2023-10-31T11:25:10;98979.44;;;13.50;82.81
35489;BME280;21602;55.670;37.578;2023-10-31T11:27:39;98988.25;;;13.46;82.81
35489;BME280;21602;55.670;37.578;2023-10-31T11:30:06;98987.44;;;13.40;83.06
35489;BME280;21602;55.670;37.578;2023-10-31T11:32:32;98987.44;;;13.40;83.26
35489;BME280;21602;55.670;37.578;2023-10-31T11:35:01;98983.94;;;13.40;83.19
35489;BME280;21602;55.670;37.578;2023-10-31T11:37:32;98986.84;;;13.33;83.09
35489;BME280;21602;55.670;37.578;2023-10-31T11:42:48;98985.56;;;13.03;84.19
35489;BME280;21602;55.670;37.578;2023-10-31T11:45:24;98985.78;;;12.92;84.46
35489;BME280;21602;55.670;37.578;2023-10-31T11:47:50;98990.50;;;12.79;85.00
35489;BME280;21602;55.670;37.578;2023-10-31T11:50:17;98988.84;;;12.73;85.22
35489;BME280;21602;55.670;37.578;2023-10-31T11:52:43;98979.75;;;12.74;85.61
35489;BME280;21602;55.670;37.578;2023-10-31T11:55:13;98983.22;;;12.75;85.21
35489;BME280;21602;55.670;37.578;2023-10-31T11:57:39;98981.88;;;12.72;85.53
35489;BME280;21602;55.670;37.578;2023-10-31T12:00:05;98979.69;;;12.64;85.82
35489;BME280;21602;55.670;37.578;2023-10-31T12:02:41;98985.00;;;12.59;85.86
35489;BME280;21602;55.670;37.578;2023-10-31T12:05:10;98986.25;;;12.51;86.01
35489;BME280;21602;55.670;37.578;2023-10-31T12:07:45;98985.16;;;12.47;86.36
35489;BME280;21602;55.670;37.578;2023-10-31T12:10:21;98980.19;;;12.34;86.45
35489;BME280;21602;55.670;37.578;2023-10-31T12:12:48;98970.97;;;12.20;87.09
35489;BME280;21602;55.670;37.578;2023-10-31T12:15:14;98974.56;;;12.03;87.51
35489;BME280;21602;55.670;37.578;2023-10-31T12:17:40;98979.00;;;11.93;87.76
35489;BME280;21602;55.670;37.578;2023-10-31T12:20:06;98970.88;;;11.83;88.45
35489;BME280;21602;55.670;37.578;2023-10-31T12:22:35;98986.75;;;11.72;88.64
35489;BME280;21602;55.670;37.578;2023-10-31T12:25:02;98986.88;;;11.61;89.17
35489;BME280;21602;55.670;37.578;2023-10-31T12:27:44;98988.69;;;11.55;89.22
35489;BME280;21602;55.670;37.578;2023-10-31T12:30:11;98979.81;;;11.49;90.01
35489;BME280;21602;55.670;37.578;2023-10-31T12:32:42;98984.78;;;11.41;90.27
35489;BME280;21602;55.670;37.578;2023-10-31T12:35:19;98983.09;;;11.35;90.57
35489;BME280;21602;55.670;37.578;2023-10-31T12:37:47;98994.75;;;11.28;90.66
35489;BME280;21602;55.670;37.578;2023-10-31T12:40:16;98997.28;;;11.18;91.01
35489;BME280;21602;55.670;37.578;2023-10-31T12:42:44;98988.88;;;11.10;90.98
35489;BME280;21602;55.670;37.578;2023-10-31T12:45:11;98986.66;;;11.01;91.71
35489;BME280;21602;55.670;37.578;2023-10-31T12:47:37;98995.94;;;10.99;92.42